sensor_id;sensor_type;location;lat;lon;timestamp;P1;durP1;ratioP1;P2;durP2;ratioP2
78207;SDS011;67481;50.244;18.288;2023-05-10T00:00:58;13.55;;;6.18;;
78207;SDS011;67481;50.244;18.288;2023-05-10T00:03:44;10.55;;;5.03;;
78207;SDS011;67481;50.244;18.288;2023-05-10T00:06:30;10.43;;;4.38;;
78207;SDS011;67481;50.244;18.288;2023-05-10T00:09:17;9.80;;;4.55;;
78207;SDS011;67481;50.244;18.288;2023-05-10T00:12:03;10.43;;;4.53;;
78207;SDS011;67481;50.244;18.288;2023-05-10T00:14:49;13.23;;;4.45;;
78207;SDS011;67481;50.244;18.288;2023-05-10T00:17:34;10.07;;;4.30;;
78207;SDS011;67481;50.244;18.288;2023-05-10T00:20:20;11.77;;;4.75;;
78207;SDS011;67481;50.244;18.288;2023-05-10T00:23:05;10.75;;;4.53;;
78207;SDS011;67481;50.244;18.288;2023-05-10T00:25:50;11.88;;;4.10;;
78207;SDS011;67481;50.244;18.288;2023-05-10T00:28:36;11.13;;;4.43;;
78207;SDS011;67481;50.244;18.288;2023-05-10T00:31:22;10.80;;;4.32;;
78207;SDS011;67481;50.244;18.288;2023-05-10T00:34:08;11.90;;;4.78;;
78207;SDS011;67481;50.244;18.288;2023-05-10T00:36:53;11.98;;;4.53;;
78207;SDS011;67481;50.244;18.288;2023-05-10T00:39:40;10.63;;;4.75;;
78207;SDS011;67481;50.244;18.288;2023-05-10T00:42:25;11.55;;;4.10;;
78207;SDS011;67481;50.244;18.288;2023-05-10T00:45:12;10.23;;;4.10;;
78207;SDS011;67481;50.244;18.288;2023-05-10T00:47:57;9.70;;;4.40;;
78207;SDS011;67481;50.244;18.288;2023-05-10T00:50:45;10.57;;;4.40;;
78207;SDS011;67481;50.244;18.288;2023-05-10T00:53:30;11.55;;;4.55;;
78207;SDS011;67481;50.244;18.288;2023-05-10T00:56:17;9.23;;;3.75;;
78207;SDS011;67481;50.244;18.288;2023-05-10T00:59:03;9.38;;;3.97;;
78207;SDS011;67481;50.244;18.288;2023-05-10T01:01:49;10.57;;;4.20;;
78207;SDS011;67481;50.244;18.288;2023-05-10T01:04:36;11.02;;;4.10;;
78207;SDS011;67481;50.244;18.288;2023-05-10T01:07:23;10.32;;;4.22;;
78207;SDS011;67481;50.244;18.288;2023-05-10T01:10:09;12.45;;;4.57;;
78207;SDS011;67481;50.244;18.288;2023-05-10T01:12:56;10.35;;;3.83;;
78207;SDS011;67481;50.244;18.288;2023-05-10T01:15:42;10.63;;;4.40;;
78207;SDS011;67481;50.244;18.288;2023-05-10T01:18:28;11.25;;;4.22;;
78207;SDS011;67481;50.244;18.288;2023-05-10T01:21:30;11.82;;;4.35;;
78207;SDS011;67481;50.244;18.288;2023-05-10T01:24:29;10.40;;;4.47;;
78207;SDS011;67481;50.244;18.288;2023-05-10T01:33:55;18.75;;;6.43;;
78207;SDS011;67481;50.244;18.288;2023-05-10T01:36:51;13.52;;;5.40;;
78207;SDS011;67481;50.244;18.288;2023-05-10T01:39:44;10.75;;;4.50;;
78207;SDS011;67481;50.244;18.288;2023-05-10T01:42:36;11.38;;;4.65;;
78207;SDS011;67481;50.244;18.288;2023-05-10T01:45:31;13.52;;;4.90;;
78207;SDS011;67481;50.244;18.288;2023-05-10T01:48:20;16.83;;;5.57;;
78207;SDS011;67481;50.244;18.288;2023-05-10T01:51:07;13.60;;;5.43;;
78207;SDS011;67481;50.244;18.288;2023-05-10T01:53:56;14.10;;;5.75;;
78207;SDS011;67481;50.244;18.288;2023-05-10T01:56:47;9.82;;;4.60;;
78207;SDS011;67481;50.244;18.288;2023-05-10T01:59:34;10.20;;;4.50;;
78207;SDS011;67481;50.244;18.288;2023-05-10T02:02:26;12.30;;;4.78;;
78207;SDS011;67481;50.244;18.288;2023-05-10T02:05:13;11.02;;;4.13;;
78207;SDS011;67481;50.244;18.288;2023-05-10T02:08:01;17.75;;;4.47;;
78207;SDS011;67481;50.244;18.288;2023-05-10T02:10:49;11.75;;;3.97;;
78207;SDS011;67481;50.244;18.288;2023-05-10T02:13:36;10.25;;;4.43;;
78207;SDS011;67481;50.244;18.288;2023-05-10T02:16:25;10.60;;;4.40;;
78207;SDS011;67481;50.244;18.288;2023-05-10T02:19:11;8.75;;;3.97;;
78207;SDS011;67481;50.244;18.288;2023-05-10T02:21:59;12.10;;;4.93;;
78207;SDS011;67481;50.244;18.288;2023-05-10T02:24:46;12.30;;;4.65;;
78207;SDS011;67481;50.244;18.288;2023-05-10T02:27:32;12.65;;;4.25;;
78207;SDS011;67481;50.244;18.288;2023-05-10T02:30:18;12.27;;;4.57;;
78207;SDS011;67481;50.244;18.288;2023-05-10T02:33:05;11.88;;;4.45;;
78207;SDS011;67481;50.244;18.288;2023-05-10T02:35:51;12.30;;;4.40;;
78207;SDS011;67481;50.244;18.288;2023-05-10T02:38:37;12.95;;;4.20;;
78207;SDS011;67481;50.244;18.288;2023-05-10T02:41:23;10.98;;;4.32;;
78207;SDS011;67481;50.244;18.288;2023-05-10T02:44:09;12.27;;;4.80;;
78207;SDS011;67481;50.244;18.288;2023-05-10T02:46:56;14.55;;;5.47;;
78207;SDS011;67481;50.244;18.288;2023-05-10T02:49:42;15.85;;;5.70;;
78207;SDS011;67481;50.244;18.288;2023-05-10T02:52:29;11.05;;;5.25;;
78207;SDS011;67481;50.244;18.288;2023-05-10T02:55:16;11.75;;;5.00;;
78207;SDS011;67481;50.244;18.288;2023-05-10T03:00:50;11.27;;;4.40;;
78207;SDS011;67481;50.244;18.288;2023-05-10T03:03:36;10.40;;;4.57;;
78207;SDS011;67481;50.244;18.288;2023-05-10T03:06:21;10.75;;;4.95;;
78207;SDS011;67481;50.244;18.288;2023-05-10T03:09:07;15.07;;;5.28;;
78207;SDS011;67481;50.244;18.288;2023-05-10T03:15:31;12.07;;;5.22;;
78207;SDS011;67481;50.244;18.288;2023-05-10T03:18:29;10.55;;;4.60;;
78207;SDS011;67481;50.244;18.288;2023-05-10T03:24:08;12.90;;;5.35;;
78207;SDS011;67481;50.244;18.288;2023-05-10T03:26:58;11.35;;;4.80;;
78207;SDS011;67481;50.244;18.288;2023-05-10T03:29:48;18.23;;;4.97;;
78207;SDS011;67481;50.244;18.288;2023-05-10T03:35:22;9.05;;;4.30;;
78207;SDS011;67481;50.244;18.288;2023-05-10T03:38:09;16.13;;;6.57;;
78207;SDS011;67481;50.244;18.288;2023-05-10T03:40:55;15.38;;;6.72;;
78207;SDS011;67481;50.244;18.288;2023-05-10T03:43:41;75.88;;;19.77;;
78207;SDS011;67481;50.244;18.288;2023-05-10T03:46:27;269.15;;;65.43;;
78207;SDS011;67481;50.244;18.288;2023-05-10T03:49:12;340.17;;;107.05;;
78207;SDS011;67481;50.244;18.288;2023-05-10T03:51:58;303.70;;;103.05;;
78207;SDS011;67481;50.244;18.288;2023-05-10T03:54:44;211.52;;;72.15;;
78207;SDS011;67481;50.244;18.288;2023-05-10T03:57:33;106.88;;;37.63;;
78207;SDS011;67481;50.244;18.288;2023-05-10T04:00:19;61.17;;;27.90;;
78207;SDS011;67481;50.244;18.288;2023-05-10T04:03:09;30.42;;;14.02;;
78207;SDS011;67481;50.244;18.288;2023-05-10T04:05:59;23.55;;;8.10;;
78207;SDS011;67481;50.244;18.288;2023-05-10T04:08:46;15.02;;;6.78;;
78207;SDS011;67481;50.244;18.288;2023-05-10T04:11:32;17.83;;;8.00;;
78207;SDS011;67481;50.244;18.288;2023-05-10T04:14:18;12.77;;;5.72;;
78207;SDS011;67481;50.244;18.288;2023-05-10T04:17:03;13.55;;;5.20;;
78207;SDS011;67481;50.244;18.288;2023-05-10T04:19:49;13.48;;;6.05;;
78207;SDS011;67481;50.244;18.288;2023-05-10T04:22:38;10.73;;;5.85;;
78207;SDS011;67481;50.244;18.288;2023-05-10T04:25:24;18.02;;;7.80;;
78207;SDS011;67481;50.244;18.288;2023-05-10T04:28:10;14.13;;;5.80;;
78207;SDS011;67481;50.244;18.288;2023-05-10T04:31:02;14.55;;;6.75;;
78207;SDS011;67481;50.244;18.288;2023-05-10T04:33:49;15.43;;;6.53;;
78207;SDS011;67481;50.244;18.288;2023-05-10T04:36:35;12.25;;;5.00;;
78207;SDS011;67481;50.244;18.288;2023-05-10T04:39:21;28.00;;;10.27;;
78207;SDS011;67481;50.244;18.288;2023-05-10T04:42:08;14.32;;;6.90;;
78207;SDS011;67481;50.244;18.288;2023-05-10T04:44:57;13.82;;;6.05;;
78207;SDS011;67481;50.244;18.288;2023-05-10T04:47:43;15.07;;;6.47;;
78207;SDS011;67481;50.244;18.288;2023-05-10T04:50:29;14.30;;;7.10;;
78207;SDS011;67481;50.244;18.288;2023-05-10T04:53:15;17.50;;;7.20;;
78207;SDS011;67481;50.244;18.288;2023-05-10T04:56:00;13.85;;;5.15;;
78207;SDS011;67481;50.244;18.288;2023-05-10T04:58:46;13.57;;;5.63;;
78207;SDS011;67481;50.244;18.288;2023-05-10T05:01:32;16.98;;;6.68;;
78207;SDS011;67481;50.244;18.288;2023-05-10T05:04:18;19.92;;;7.55;;
78207;SDS011;67481;50.244;18.288;2023-05-10T05:07:03;13.52;;;5.57;;
78207;SDS011;67481;50.244;18.288;2023-05-10T05:09:48;13.38;;;6.07;;
78207;SDS011;67481;50.244;18.288;2023-05-10T05:12:34;15.15;;;6.43;;
78207;SDS011;67481;50.244;18.288;2023-05-10T05:15:20;10.55;;;4.80;;
78207;SDS011;67481;50.244;18.288;2023-05-10T05:18:06;13.95;;;6.22;;
78207;SDS011;67481;50.244;18.288;2023-05-10T05:20:52;16.83;;;6.32;;
78207;SDS011;67481;50.244;18.288;2023-05-10T05:23:37;12.20;;;4.53;;
78207;SDS011;67481;50.244;18.288;2023-05-10T05:26:27;10.02;;;4.82;;
78207;SDS011;67481;50.244;18.288;2023-05-10T05:29:13;10.57;;;4.65;;
78207;SDS011;67481;50.244;18.288;2023-05-10T05:31:58;13.55;;;5.82;;
78207;SDS011;67481;50.244;18.288;2023-05-10T05:34:44;11.65;;;4.75;;
78207;SDS011;67481;50.244;18.288;2023-05-10T05:37:31;11.65;;;4.70;;
78207;SDS011;67481;50.244;18.288;2023-05-10T05:40:16;11.98;;;5.60;;
78207;SDS011;67481;50.244;18.288;2023-05-10T05:43:02;13.23;;;5.40;;
78207;SDS011;67481;50.244;18.288;2023-05-10T05:45:48;12.43;;;5.03;;
78207;SDS011;67481;50.244;18.288;2023-05-10T05:48:34;10.48;;;4.55;;
78207;SDS011;67481;50.244;18.288;2023-05-10T05:51:20;11.00;;;4.85;;
78207;SDS011;67481;50.244;18.288;2023-05-10T05:54:06;12.43;;;5.38;;
78207;SDS011;67481;50.244;18.288;2023-05-10T05:56:53;12.55;;;5.00;;
78207;SDS011;67481;50.244;18.288;2023-05-10T05:59:45;14.85;;;4.82;;
78207;SDS011;67481;50.244;18.288;2023-05-10T06:02:30;13.75;;;5.40;;
78207;SDS011;67481;50.244;18.288;2023-05-10T06:05:16;11.77;;;4.53;;
78207;SDS011;67481;50.244;18.288;2023-05-10T06:08:02;12.07;;;4.88;;
78207;SDS011;67481;50.244;18.288;2023-05-10T06:10:48;11.73;;;5.05;;
78207;SDS011;67481;50.244;18.288;2023-05-10T06:13:34;11.80;;;4.95;;
78207;SDS011;67481;50.244;18.288;2023-05-10T06:16:20;11.60;;;4.20;;
78207;SDS011;67481;50.244;18.288;2023-05-10T06:19:06;10.60;;;4.28;;
78207;SDS011;67481;50.244;18.288;2023-05-10T06:21:52;9.45;;;4.60;;
78207;SDS011;67481;50.244;18.288;2023-05-10T06:24:38;9.32;;;3.63;;
78207;SDS011;67481;50.244;18.288;2023-05-10T06:27:23;10.90;;;4.40;;
78207;SDS011;67481;50.244;18.288;2023-05-10T06:30:09;9.57;;;3.97;;
78207;SDS011;67481;50.244;18.288;2023-05-10T06:32:58;10.07;;;4.60;;
78207;SDS011;67481;50.244;18.288;2023-05-10T06:35:43;9.45;;;3.33;;
78207;SDS011;67481;50.244;18.288;2023-05-10T06:38:29;10.57;;;3.70;;
78207;SDS011;67481;50.244;18.288;2023-05-10T06:41:15;7.85;;;3.78;;
78207;SDS011;67481;50.244;18.288;2023-05-10T06:44:00;11.13;;;4.32;;
78207;SDS011;67481;50.244;18.288;2023-05-10T06:46:46;7.95;;;3.03;;
78207;SDS011;67481;50.244;18.288;2023-05-10T06:49:32;10.27;;;3.47;;
78207;SDS011;67481;50.244;18.288;2023-05-10T06:52:17;7.13;;;2.50;;
78207;SDS011;67481;50.244;18.288;2023-05-10T06:55:03;6.95;;;2.95;;
78207;SDS011;67481;50.244;18.288;2023-05-10T06:57:49;8.40;;;3.67;;
78207;SDS011;67481;50.244;18.288;2023-05-10T07:00:36;10.40;;;3.38;;
78207;SDS011;67481;50.244;18.288;2023-05-10T07:03:25;8.23;;;3.13;;
78207;SDS011;67481;50.244;18.288;2023-05-10T07:06:11;6.57;;;3.03;;
78207;SDS011;67481;50.244;18.288;2023-05-10T07:09:09;9.85;;;3.85;;
78207;SDS011;67481;50.244;18.288;2023-05-10T07:11:55;7.40;;;2.97;;
78207;SDS011;67481;50.244;18.288;2023-05-10T07:14:42;7.88;;;2.60;;
78207;SDS011;67481;50.244;18.288;2023-05-10T07:17:28;6.00;;;2.40;;
78207;SDS011;67481;50.244;18.288;2023-05-10T07:20:14;7.15;;;2.70;;
78207;SDS011;67481;50.244;18.288;2023-05-10T07:22:59;8.75;;;2.95;;
78207;SDS011;67481;50.244;18.288;2023-05-10T07:25:48;7.95;;;3.42;;
78207;SDS011;67481;50.244;18.288;2023-05-10T07:28:36;8.10;;;2.95;;
78207;SDS011;67481;50.244;18.288;2023-05-10T07:31:22;8.55;;;3.13;;
78207;SDS011;67481;50.244;18.288;2023-05-10T07:34:08;6.78;;;2.22;;
78207;SDS011;67481;50.244;18.288;2023-05-10T07:36:54;8.02;;;3.00;;
78207;SDS011;67481;50.244;18.288;2023-05-10T07:39:39;8.10;;;2.90;;
78207;SDS011;67481;50.244;18.288;2023-05-10T07:42:24;7.10;;;2.65;;
78207;SDS011;67481;50.244;18.288;2023-05-10T07:45:10;7.28;;;2.92;;
78207;SDS011;67481;50.244;18.288;2023-05-10T07:47:57;7.05;;;2.28;;
78207;SDS011;67481;50.244;18.288;2023-05-10T07:50:42;6.35;;;2.15;;
78207;SDS011;67481;50.244;18.288;2023-05-10T07:53:28;5.13;;;2.17;;
78207;SDS011;67481;50.244;18.288;2023-05-10T07:56:22;4.93;;;1.85;;
78207;SDS011;67481;50.244;18.288;2023-05-10T07:59:15;7.20;;;2.40;;
78207;SDS011;67481;50.244;18.288;2023-05-10T08:02:01;6.93;;;2.63;;
78207;SDS011;67481;50.244;18.288;2023-05-10T08:04:47;6.90;;;2.55;;
78207;SDS011;67481;50.244;18.288;2023-05-10T08:07:33;8.35;;;2.63;;
78207;SDS011;67481;50.244;18.288;2023-05-10T08:10:19;4.90;;;1.88;;
78207;SDS011;67481;50.244;18.288;2023-05-10T08:13:04;7.78;;;2.80;;
78207;SDS011;67481;50.244;18.288;2023-05-10T08:15:50;5.72;;;2.30;;
78207;SDS011;67481;50.244;18.288;2023-05-10T08:18:39;3.92;;;1.35;;
78207;SDS011;67481;50.244;18.288;2023-05-10T08:21:25;7.45;;;2.97;;
78207;SDS011;67481;50.244;18.288;2023-05-10T08:24:11;7.63;;;2.75;;
78207;SDS011;67481;50.244;18.288;2023-05-10T08:26:57;6.63;;;2.65;;
78207;SDS011;67481;50.244;18.288;2023-05-10T08:29:43;5.50;;;1.83;;
78207;SDS011;67481;50.244;18.288;2023-05-10T08:32:34;6.20;;;2.38;;
78207;SDS011;67481;50.244;18.288;2023-05-10T08:35:20;6.40;;;2.42;;
78207;SDS011;67481;50.244;18.288;2023-05-10T08:38:06;5.28;;;1.58;;
78207;SDS011;67481;50.244;18.288;2023-05-10T08:40:52;7.45;;;2.35;;
78207;SDS011;67481;50.244;18.288;2023-05-10T08:43:41;6.22;;;2.97;;
78207;SDS011;67481;50.244;18.288;2023-05-10T08:46:31;7.07;;;2.60;;
78207;SDS011;67481;50.244;18.288;2023-05-10T08:49:20;7.93;;;2.90;;
78207;SDS011;67481;50.244;18.288;2023-05-10T08:52:07;5.82;;;2.47;;
78207;SDS011;67481;50.244;18.288;2023-05-10T08:54:53;5.47;;;2.13;;
78207;SDS011;67481;50.244;18.288;2023-05-10T08:57:38;5.40;;;2.10;;
78207;SDS011;67481;50.244;18.288;2023-05-10T09:00:24;4.68;;;1.75;;
78207;SDS011;67481;50.244;18.288;2023-05-10T09:03:10;6.97;;;2.63;;
78207;SDS011;67481;50.244;18.288;2023-05-10T09:05:56;5.93;;;2.33;;
78207;SDS011;67481;50.244;18.288;2023-05-10T09:08:42;6.85;;;2.47;;
78207;SDS011;67481;50.244;18.288;2023-05-10T09:11:28;5.90;;;2.50;;
78207;SDS011;67481;50.244;18.288;2023-05-10T09:14:15;8.50;;;2.33;;
78207;SDS011;67481;50.244;18.288;2023-05-10T09:17:01;6.00;;;2.40;;
78207;SDS011;67481;50.244;18.288;2023-05-10T09:19:47;7.53;;;2.30;;
78207;SDS011;67481;50.244;18.288;2023-05-10T09:22:33;7.47;;;2.42;;
78207;SDS011;67481;50.244;18.288;2023-05-10T09:25:19;4.43;;;1.38;;
78207;SDS011;67481;50.244;18.288;2023-05-10T09:28:08;7.55;;;1.73;;
78207;SDS011;67481;50.244;18.288;2023-05-10T09:30:54;5.43;;;2.33;;
78207;SDS011;67481;50.244;18.288;2023-05-10T09:33:44;6.03;;;2.28;;
78207;SDS011;67481;50.244;18.288;2023-05-10T09:36:31;3.72;;;1.38;;
78207;SDS011;67481;50.244;18.288;2023-05-10T09:39:17;4.28;;;1.55;;
78207;SDS011;67481;50.244;18.288;2023-05-10T09:42:04;6.18;;;2.03;;
78207;SDS011;67481;50.244;18.288;2023-05-10T09:44:51;6.47;;;2.35;;
78207;SDS011;67481;50.244;18.288;2023-05-10T09:47:36;5.30;;;2.03;;
78207;SDS011;67481;50.244;18.288;2023-05-10T09:50:23;6.05;;;2.40;;
78207;SDS011;67481;50.244;18.288;2023-05-10T09:53:08;5.75;;;1.85;;
78207;SDS011;67481;50.244;18.288;2023-05-10T09:55:54;6.53;;;1.95;;
78207;SDS011;67481;50.244;18.288;2023-05-10T09:58:39;4.43;;;2.08;;
78207;SDS011;67481;50.244;18.288;2023-05-10T10:01:28;7.60;;;2.30;;
78207;SDS011;67481;50.244;18.288;2023-05-10T10:04:14;5.55;;;1.73;;
78207;SDS011;67481;50.244;18.288;2023-05-10T10:07:01;5.35;;;2.15;;
78207;SDS011;67481;50.244;18.288;2023-05-10T10:09:50;5.50;;;2.00;;
78207;SDS011;67481;50.244;18.288;2023-05-10T10:12:35;5.80;;;2.22;;
78207;SDS011;67481;50.244;18.288;2023-05-10T10:15:22;4.75;;;1.95;;
78207;SDS011;67481;50.244;18.288;2023-05-10T10:18:12;6.03;;;2.13;;
78207;SDS011;67481;50.244;18.288;2023-05-10T10:20:59;5.40;;;2.10;;
78207;SDS011;67481;50.244;18.288;2023-05-10T10:23:45;7.18;;;2.15;;
78207;SDS011;67481;50.244;18.288;2023-05-10T10:26:33;6.00;;;2.38;;
78207;SDS011;67481;50.244;18.288;2023-05-10T10:32:55;4.80;;;2.08;;
78207;SDS011;67481;50.244;18.288;2023-05-10T10:35:54;5.20;;;2.17;;
78207;SDS011;67481;50.244;18.288;2023-05-10T10:41:33;3.95;;;1.27;;
78207;SDS011;67481;50.244;18.288;2023-05-10T10:47:22;3.47;;;1.00;;
78207;SDS011;67481;50.244;18.288;2023-05-10T10:50:09;6.43;;;2.00;;
78207;SDS011;67481;50.244;18.288;2023-05-10T10:52:58;6.03;;;2.28;;
78207;SDS011;67481;50.244;18.288;2023-05-10T10:56:04;5.90;;;1.98;;
78207;SDS011;67481;50.244;18.288;2023-05-10T10:58:52;5.47;;;2.10;;
78207;SDS011;67481;50.244;18.288;2023-05-10T11:01:39;4.95;;;1.80;;
78207;SDS011;67481;50.244;18.288;2023-05-10T11:04:27;5.72;;;2.00;;
78207;SDS011;67481;50.244;18.288;2023-05-10T11:07:16;5.00;;;2.22;;
78207;SDS011;67481;50.244;18.288;2023-05-10T11:10:06;5.25;;;2.05;;
78207;SDS011;67481;50.244;18.288;2023-05-10T11:13:01;4.88;;;1.63;;
78207;SDS011;67481;50.244;18.288;2023-05-10T11:15:51;5.50;;;2.20;;
78207;SDS011;67481;50.244;18.288;2023-05-10T11:18:37;5.28;;;1.95;;
78207;SDS011;67481;50.244;18.288;2023-05-10T11:21:23;8.40;;;2.20;;
78207;SDS011;67481;50.244;18.288;2023-05-10T11:24:13;5.47;;;2.25;;
78207;SDS011;67481;50.244;18.288;2023-05-10T11:27:00;4.13;;;1.48;;
78207;SDS011;67481;50.244;18.288;2023-05-10T11:29:46;5.07;;;2.15;;
78207;SDS011;67481;50.244;18.288;2023-05-10T11:32:31;5.20;;;2.38;;
78207;SDS011;67481;50.244;18.288;2023-05-10T11:35:17;5.68;;;2.28;;
78207;SDS011;67481;50.244;18.288;2023-05-10T11:38:02;5.82;;;1.88;;
78207;SDS011;67481;50.244;18.288;2023-05-10T11:40:49;5.30;;;2.17;;
78207;SDS011;67481;50.244;18.288;2023-05-10T11:43:37;5.40;;;2.25;;
78207;SDS011;67481;50.244;18.288;2023-05-10T11:46:25;4.63;;;1.77;;
78207;SDS011;67481;50.244;18.288;2023-05-10T11:49:14;5.45;;;2.53;;
78207;SDS011;67481;50.244;18.288;2023-05-10T11:52:03;6.65;;;2.10;;
78207;SDS011;67481;50.244;18.288;2023-05-10T11:54:53;6.97;;;2.25;;
78207;SDS011;67481;50.244;18.288;2023-05-10T11:57:39;5.90;;;2.63;;
78207;SDS011;67481;50.244;18.288;2023-05-10T12:00:27;6.13;;;2.60;;
78207;SDS011;67481;50.244;18.288;2023-05-10T12:03:14;7.30;;;2.20;;
78207;SDS011;67481;50.244;18.288;2023-05-10T12:06:00;7.78;;;2.25;;
78207;SDS011;67481;50.244;18.288;2023-05-10T12:08:47;5.47;;;2.53;;
78207;SDS011;67481;50.244;18.288;2023-05-10T12:11:36;6.38;;;2.70;;
78207;SDS011;67481;50.244;18.288;2023-05-10T12:14:25;5.30;;;2.38;;
78207;SDS011;67481;50.244;18.288;2023-05-10T12:17:12;7.80;;;2.50;;
78207;SDS011;67481;50.244;18.288;2023-05-10T12:20:13;5.18;;;2.13;;
78207;SDS011;67481;50.244;18.288;2023-05-10T12:23:03;5.22;;;2.25;;
78207;SDS011;67481;50.244;18.288;2023-05-10T12:25:49;5.65;;;2.47;;
78207;SDS011;67481;50.244;18.288;2023-05-10T12:28:34;6.47;;;2.75;;
78207;SDS011;67481;50.244;18.288;2023-05-10T12:31:21;6.03;;;2.50;;
78207;SDS011;67481;50.244;18.288;2023-05-10T12:34:07;5.93;;;2.45;;
78207;SDS011;67481;50.244;18.288;2023-05-10T12:36:53;5.85;;;2.20;;
78207;SDS011;67481;50.244;18.288;2023-05-10T12:39:40;5.93;;;2.50;;
78207;SDS011;67481;50.244;18.288;2023-05-10T12:42:27;5.88;;;2.95;;
78207;SDS011;67481;50.244;18.288;2023-05-10T12:45:12;5.90;;;2.50;;
78207;SDS011;67481;50.244;18.288;2023-05-10T12:47:58;5.75;;;2.53;;
78207;SDS011;67481;50.244;18.288;2023-05-10T12:50:43;6.35;;;2.63;;
78207;SDS011;67481;50.244;18.288;2023-05-10T12:53:29;6.50;;;2.35;;
78207;SDS011;67481;50.244;18.288;2023-05-10T12:56:15;5.93;;;2.38;;
78207;SDS011;67481;50.244;18.288;2023-05-10T12:59:01;5.80;;;2.20;;
78207;SDS011;67481;50.244;18.288;2023-05-10T13:01:46;5.85;;;2.33;;
78207;SDS011;67481;50.244;18.288;2023-05-10T13:04:32;6.90;;;2.17;;
78207;SDS011;67481;50.244;18.288;2023-05-10T13:07:18;7.57;;;2.75;;
78207;SDS011;67481;50.244;18.288;2023-05-10T13:10:04;6.82;;;2.90;;
78207;SDS011;67481;50.244;18.288;2023-05-10T13:12:51;6.70;;;3.17;;
78207;SDS011;67481;50.244;18.288;2023-05-10T13:15:37;6.00;;;2.10;;
78207;SDS011;67481;50.244;18.288;2023-05-10T13:18:22;7.00;;;2.50;;
78207;SDS011;67481;50.244;18.288;2023-05-10T13:21:09;7.25;;;3.28;;
78207;SDS011;67481;50.244;18.288;2023-05-10T13:23:55;6.53;;;2.88;;
78207;SDS011;67481;50.244;18.288;2023-05-10T13:26:41;7.80;;;3.70;;
78207;SDS011;67481;50.244;18.288;2023-05-10T13:29:27;7.68;;;3.67;;
78207;SDS011;67481;50.244;18.288;2023-05-10T13:32:13;7.50;;;3.67;;
78207;SDS011;67481;50.244;18.288;2023-05-10T13:34:59;7.05;;;3.58;;
78207;SDS011;67481;50.244;18.288;2023-05-10T13:37:45;7.53;;;3.78;;
78207;SDS011;67481;50.244;18.288;2023-05-10T13:40:30;9.77;;;3.90;;
78207;SDS011;67481;50.244;18.288;2023-05-10T13:43:16;6.70;;;2.00;;
78207;SDS011;67481;50.244;18.288;2023-05-10T13:46:01;6.50;;;3.17;;
78207;SDS011;67481;50.244;18.288;2023-05-10T13:48:48;7.65;;;3.33;;
78207;SDS011;67481;50.244;18.288;2023-05-10T13:51:34;9.48;;;3.72;;
78207;SDS011;67481;50.244;18.288;2023-05-10T13:54:19;7.40;;;3.17;;
78207;SDS011;67481;50.244;18.288;2023-05-10T13:57:07;7.18;;;2.35;;
78207;SDS011;67481;50.244;18.288;2023-05-10T13:59:53;10.55;;;4.07;;
78207;SDS011;67481;50.244;18.288;2023-05-10T14:02:41;8.73;;;4.03;;
78207;SDS011;67481;50.244;18.288;2023-05-10T14:05:27;11.13;;;4.35;;
78207;SDS011;67481;50.244;18.288;2023-05-10T14:08:13;12.82;;;5.38;;
78207;SDS011;67481;50.244;18.288;2023-05-10T14:11:00;12.10;;;4.50;;
78207;SDS011;67481;50.244;18.288;2023-05-10T14:13:46;11.45;;;4.55;;
78207;SDS011;67481;50.244;18.288;2023-05-10T14:16:32;15.15;;;5.53;;
78207;SDS011;67481;50.244;18.288;2023-05-10T14:19:18;13.73;;;5.05;;
78207;SDS011;67481;50.244;18.288;2023-05-10T14:22:04;14.00;;;3.65;;
78207;SDS011;67481;50.244;18.288;2023-05-10T14:24:51;16.65;;;5.55;;
78207;SDS011;67481;50.244;18.288;2023-05-10T14:27:37;13.52;;;4.95;;
78207;SDS011;67481;50.244;18.288;2023-05-10T14:30:22;10.73;;;4.22;;
78207;SDS011;67481;50.244;18.288;2023-05-10T14:33:08;12.45;;;5.28;;
78207;SDS011;67481;50.244;18.288;2023-05-10T14:35:55;13.45;;;4.70;;
78207;SDS011;67481;50.244;18.288;2023-05-10T14:38:42;12.20;;;4.35;;
78207;SDS011;67481;50.244;18.288;2023-05-10T14:41:29;10.82;;;4.10;;
78207;SDS011;67481;50.244;18.288;2023-05-10T14:44:15;11.18;;;4.35;;
78207;SDS011;67481;50.244;18.288;2023-05-10T14:47:01;12.52;;;4.38;;
78207;SDS011;67481;50.244;18.288;2023-05-10T14:49:48;10.30;;;4.03;;
78207;SDS011;67481;50.244;18.288;2023-05-10T14:52:33;7.18;;;2.95;;
78207;SDS011;67481;50.244;18.288;2023-05-10T14:55:20;8.55;;;2.88;;
78207;SDS011;67481;50.244;18.288;2023-05-10T14:58:06;7.93;;;2.85;;
78207;SDS011;67481;50.244;18.288;2023-05-10T15:00:52;7.22;;;3.10;;
78207;SDS011;67481;50.244;18.288;2023-05-10T15:03:39;10.00;;;3.50;;
78207;SDS011;67481;50.244;18.288;2023-05-10T15:06:30;7.68;;;2.72;;
78207;SDS011;67481;50.244;18.288;2023-05-10T15:09:16;13.57;;;6.88;;
78207;SDS011;67481;50.244;18.288;2023-05-10T15:12:02;6.80;;;2.00;;
78207;SDS011;67481;50.244;18.288;2023-05-10T15:14:51;9.63;;;2.90;;
78207;SDS011;67481;50.244;18.288;2023-05-10T15:17:36;9.00;;;3.05;;
78207;SDS011;67481;50.244;18.288;2023-05-10T15:20:22;7.07;;;2.63;;
78207;SDS011;67481;50.244;18.288;2023-05-10T15:23:08;8.07;;;3.15;;
78207;SDS011;67481;50.244;18.288;2023-05-10T15:25:54;7.93;;;3.05;;
78207;SDS011;67481;50.244;18.288;2023-05-10T15:28:41;8.43;;;2.88;;
78207;SDS011;67481;50.244;18.288;2023-05-10T15:31:26;8.43;;;3.15;;
78207;SDS011;67481;50.244;18.288;2023-05-10T15:34:13;10.00;;;3.40;;
78207;SDS011;67481;50.244;18.288;2023-05-10T15:36:59;10.75;;;3.35;;
78207;SDS011;67481;50.244;18.288;2023-05-10T15:39:45;8.23;;;3.33;;
78207;SDS011;67481;50.244;18.288;2023-05-10T15:42:30;7.95;;;2.72;;
78207;SDS011;67481;50.244;18.288;2023-05-10T15:45:17;7.88;;;3.30;;
78207;SDS011;67481;50.244;18.288;2023-05-10T15:48:03;8.98;;;3.17;;
78207;SDS011;67481;50.244;18.288;2023-05-10T15:50:50;8.13;;;3.22;;
78207;SDS011;67481;50.244;18.288;2023-05-10T15:53:36;9.02;;;3.05;;
78207;SDS011;67481;50.244;18.288;2023-05-10T15:56:28;7.93;;;3.90;;
78207;SDS011;67481;50.244;18.288;2023-05-10T15:59:14;9.05;;;4.15;;
78207;SDS011;67481;50.244;18.288;2023-05-10T16:02:01;8.23;;;3.33;;
78207;SDS011;67481;50.244;18.288;2023-05-10T16:04:48;8.27;;;2.97;;
78207;SDS011;67481;50.244;18.288;2023-05-10T16:07:34;8.73;;;4.05;;
78207;SDS011;67481;50.244;18.288;2023-05-10T16:10:24;7.78;;;3.35;;
78207;SDS011;67481;50.244;18.288;2023-05-10T16:13:11;7.65;;;2.83;;
78207;SDS011;67481;50.244;18.288;2023-05-10T16:15:57;7.30;;;2.80;;
78207;SDS011;67481;50.244;18.288;2023-05-10T16:18:43;6.78;;;2.28;;
78207;SDS011;67481;50.244;18.288;2023-05-10T16:21:29;9.73;;;3.17;;
78207;SDS011;67481;50.244;18.288;2023-05-10T16:24:18;10.18;;;4.10;;
78207;SDS011;67481;50.244;18.288;2023-05-10T16:27:04;10.48;;;3.70;;
78207;SDS011;67481;50.244;18.288;2023-05-10T16:29:50;9.73;;;4.15;;
78207;SDS011;67481;50.244;18.288;2023-05-10T16:32:36;9.90;;;4.43;;
78207;SDS011;67481;50.244;18.288;2023-05-10T16:35:22;7.80;;;3.63;;
78207;SDS011;67481;50.244;18.288;2023-05-10T16:38:08;9.32;;;4.18;;
78207;SDS011;67481;50.244;18.288;2023-05-10T16:40:54;7.78;;;3.65;;
78207;SDS011;67481;50.244;18.288;2023-05-10T16:43:41;12.40;;;3.47;;
78207;SDS011;67481;50.244;18.288;2023-05-10T16:46:29;10.98;;;3.97;;
78207;SDS011;67481;50.244;18.288;2023-05-10T16:49:15;8.80;;;3.80;;
78207;SDS011;67481;50.244;18.288;2023-05-10T16:52:01;10.45;;;3.78;;